Time;durP1;ratioP1;P1;durP2;ratioP2;P2;SDS_P1;SDS_P2;PMS_P1;PMS_P2;Temp;Humidity;BMP_temperature;BMP_pressure;BME280_temperature;BME280_humidity;BME280_pressure;Samples;Min_cycle;Max_cycle;Signal;HPM_P1;HPM_P2
2022/10/10 00:00:34;;;;;;;4.38;1.13;;;;;;;11.38;80.49;99837.34;5050175;28;20051;-75
2022/10/10 00:03:00;;;;;;;4.00;1.45;;;;;;;11.43;80.79;99835.34;5055697;28;20025;-72
2022/10/10 00:05:26;;;;;;;2.97;1.13;;;;;;;11.49;80.33;99833.41;5045606;28;20029;-71
2022/10/10 00:07:51;;;;;;;1.85;0.98;;;;;;;11.62;80.14;99840.97;5063767;28;20030;-74
2022/10/10 00:10:17;;;;;;;1.52;1.05;;;;;;;11.68;79.69;99837.09;5022176;28;20029;-73
2022/10/10 00:12:42;;;;;;;1.60;1.25;;;;;;;11.69;79.86;99838.69;5058100;28;20032;-73
2022/10/10 00:15:12;;;;;;;3.30;1.13;;;;;;;11.79;79.20;99842.47;5064090;28;20020;-76
2022/10/10 00:17:37;;;;;;;2.22;0.98;;;;;;;11.81;79.92;99845.72;5020209;28;20114;-74
2022/10/10 00:20:03;;;;;;;6.50;1.10;;;;;;;11.88;79.88;99835.25;5052674;28;20024;-73
2022/10/10 00:22:29;;;;;;;2.72;1.27;;;;;;;11.98;80.03;99850.81;5061731;28;20067;-74
2022/10/10 00:24:54;;;;;;;3.83;1.40;;;;;;;12.02;79.87;99841.72;5055514;28;20075;-75
2022/10/10 00:27:20;;;;;;;2.97;1.13;;;;;;;12.06;79.80;99841.94;5048416;28;20431;-73
2022/10/10 00:29:45;;;;;;;2.25;1.13;;;;;;;12.09;79.31;99835.06;5039239;28;20020;-73
2022/10/10 00:32:10;;;;;;;3.17;1.00;;;;;;;12.10;79.70;99831.22;5079544;28;20123;-73
2022/10/10 00:34:36;;;;;;;3.13;0.90;;;;;;;12.18;79.48;99845.09;5060953;28;20048;-73
2022/10/10 00:37:01;;;;;;;1.02;0.60;;;;;;;12.15;79.59;99839.38;5050033;28;20052;-73
2022/10/10 00:39:27;;;;;;;3.08;0.85;;;;;;;12.14;79.29;99840.50;5035607;28;20036;-73
2022/10/10 00:41:52;;;;;;;2.38;1.10;;;;;;;12.14;79.93;99837.75;5062889;28;20088;-74
2022/10/10 00:44:18;;;;;;;3.67;1.70;;;;;;;12.16;79.61;99825.41;5065301;28;20513;-73
2022/10/10 00:46:43;;;;;;;4.45;1.08;;;;;;;12.31;79.68;99840.88;5060432;28;20022;-74
2022/10/10 00:49:24;;;;;;;3.70;1.20;;;;;;;12.34;79.31;99834.78;5057146;28;20032;-73
2022/10/10 00:51:54;;;;;;;3.22;1.67;;;;;;;12.29;79.93;99821.13;5030341;28;20057;-74
2022/10/10 00:54:22;;;;;;;1.48;1.10;;;;;;;12.39;79.42;99834.72;5050198;28;20067;-74
2022/10/10 00:56:56;;;;;;;6.20;0.93;;;;;;;12.43;79.03;99845.13;5003976;28;20364;-72
2022/10/10 00:59:23;;;;;;;1.10;0.82;;;;;;;12.38;79.54;99849.56;5058925;28;20170;-72
2022/10/10 01:01:49;;;;;;;2.25;1.10;;;;;;;12.33;79.30;99829.59;5037070;28;20037;-73
2022/10/10 01:04:34;;;;;;;2.08;0.93;;;;;;;12.28;79.89;99833.22;5056743;28;20075;-74
2022/10/10 01:07:02;;;;;;;2.08;0.80;;;;;;;12.26;79.91;99842.84;5042446;28;20024;-74
2022/10/10 01:09:28;;;;;;;0.68;0.65;;;;;;;12.20;79.68;99836.59;5029864;28;20013;-73
2022/10/10 01:12:29;;;;;;;1.08;0.80;;;;;;;12.15;80.24;99828.41;5038926;28;20021;-74
2022/10/10 01:14:55;;;;;;;1.67;0.80;;;;;;;12.16;80.15;99828.16;5054639;28;20057;-74
2022/10/10 01:17:37;;;;;;;2.92;0.98;;;;;;;12.17;80.40;99832.50;5059365;28;20025;-73
2022/10/10 01:20:35;;;;;;;2.53;1.10;;;;;;;12.18;80.33;99830.59;5045750;28;20059;-74
2022/10/10 01:23:03;;;;;;;2.25;1.40;;;;;;;12.21;80.50;99846.47;5040913;28;20029;-74
2022/10/10 01:26:02;;;;;;;2.33;1.10;;;;;;;12.23;80.20;99841.50;5045032;28;20111;-74
2022/10/10 01:28:55;;;;;;;3.25;1.13;;;;;;;12.27;80.29;99842.53;5033067;28;20028;-74
2022/10/10 01:31:23;;;;;;;3.33;1.20;;;;;;;12.31;79.63;99843.59;5043541;28;20024;-73
2022/10/10 01:34:00;;;;;;;4.47;1.08;;;;;;;12.37;79.75;99847.91;5054482;28;20025;-73
2022/10/10 01:36:33;;;;;;;3.20;1.33;;;;;;;12.44;79.50;99849.47;5049118;28;20096;-74
2022/10/10 01:39:10;;;;;;;3.08;1.48;;;;;;;12.47;79.41;99851.63;5044256;28;20021;-73
2022/10/10 01:41:42;;;;;;;4.68;1.48;;;;;;;12.53;79.65;99854.03;5058707;28;20029;-74
2022/10/10 01:44:07;;;;;;;2.70;1.15;;;;;;;12.56;78.95;99850.69;5048218;28;20014;-74
2022/10/10 01:46:33;;;;;;;1.92;0.98;;;;;;;12.59;79.14;99849.31;5040832;28;20056;-73
2022/10/10 01:49:00;;;;;;;6.45;1.40;;;;;;;12.61;79.39;99843.53;5039589;28;20041;-73
2022/10/10 01:52:04;;;;;;;6.03;2.22;;;;;;;12.58;79.40;99842.19;5052750;28;20025;-75
2022/10/10 01:54:44;;;;;;;4.20;1.20;;;;;;;12.55;78.97;99840.81;5016742;28;20041;-74
2022/10/10 01:57:43;;;;;;;3.20;1.42;;;;;;;12.57;79.57;99851.50;5061627;28;20037;-72
2022/10/10 02:00:11;;;;;;;1.95;1.08;;;;;;;12.48;79.51;99845.03;5053131;28;20041;-73
2022/10/10 02:02:52;;;;;;;6.03;1.67;;;;;;;12.47;79.74;99846.16;5053075;28;20032;-72
2022/10/10 02:05:38;;;;;;;3.08;1.20;;;;;;;12.44;80.11;99857.72;5063602;28;20035;-71
2022/10/10 02:08:22;;;;;;;1.80;1.33;;;;;;;12.40;79.82;99849.25;5071004;28;20070;-71
2022/10/10 02:10:52;;;;;;;1.70;1.00;;;;;;;12.39;79.58;99856.66;5072598;28;20017;-74
2022/10/10 02:13:20;;;;;;;3.33;1.02;;;;;;;12.47;79.13;99862.59;5065164;28;20501;-72
2022/10/10 02:15:50;;;;;;;0.60;0.50;;;;;;;12.47;79.95;99857.94;5082988;28;20020;-71
2022/10/10 02:18:19;;;;;;;1.35;1.00;;;;;;;12.56;79.25;99855.38;5064180;28;20054;-73
2022/10/10 02:20:45;;;;;;;1.10;0.60;;;;;;;12.61;78.87;99858.03;5081470;28;20036;-74
2022/10/10 02:23:14;;;;;;;2.95;0.70;;;;;;;12.63;79.44;99855.84;5064918;28;20054;-73
2022/10/10 02:25:44;;;;;;;1.40;0.70;;;;;;;12.63;79.03;99844.88;5054801;28;20032;-73
2022/10/10 02:28:19;;;;;;;1.10;0.70;;;;;;;12.66;78.81;99852.50;5063808;28;20020;-72
2022/10/10 02:30:49;;;;;;;4.43;0.68;;;;;;;12.72;78.72;99850.53;5066858;28;20024;-73
2022/10/10 02:33:18;;;;;;;0.95;0.80;;;;;;;12.75;78.72;99858.97;5067735;28;20044;-73
2022/10/10 02:35:48;;;;;;;0.73;0.60;;;;;;;12.79;78.57;99847.41;5080148;28;20050;-73
2022/10/10 02:38:14;;;;;;;0.95;0.50;;;;;;;12.89;78.42;99858.22;5045982;28;20044;-72
2022/10/10 02:40:43;;;;;;;0.60;0.43;;;;;;;12.93;78.21;99853.78;5024619;28;20028;-72
2022/10/10 02:43:10;;;;;;;1.20;0.80;;;;;;;12.95;78.59;99843.31;5064752;28;20016;-73
2022/10/10 02:45:37;;;;;;;0.70;0.63;;;;;;;13.00;78.10;99843.25;5055861;28;20078;-73
2022/10/10 02:48:03;;;;;;;0.47;0.47;;;;;;;13.02;78.09;99841.03;5076532;28;20020;-72
2022/10/10 02:50:29;;;;;;;0.93;0.60;;;;;;;13.04;77.82;99841.56;5056974;28;20082;-74
2022/10/10 02:52:56;;;;;;;3.28;0.77;;;;;;;13.02;78.24;99843.78;5061590;28;20086;-73
2022/10/10 02:55:21;;;;;;;1.15;0.80;;;;;;;13.03;78.34;99842.66;5064758;28;20029;-73
2022/10/10 02:57:47;;;;;;;2.05;0.60;;;;;;;13.05;78.00;99845.94;5055953;28;20035;-72
2022/10/10 03:00:13;;;;;;;1.33;0.80;;;;;;;13.08;78.08;99850.84;5056839;28;20136;-72
2022/10/10 03:02:39;;;;;;;5.05;1.17;;;;;;;13.12;78.69;99847.50;5075793;28;20044;-71
2022/10/10 03:05:04;;;;;;;3.33;1.30;;;;;;;13.14;78.59;99853.50;5063919;28;20037;-72
2022/10/10 03:07:30;;;;;;;3.40;1.30;;;;;;;13.16;78.63;99851.28;5060422;28;20037;-73
2022/10/10 03:09:56;;;;;;;8.68;1.63;;;;;;;13.15;79.12;99844.97;5060385;28;20025;-73
2022/10/10 03:12:21;;;;;;;3.42;1.35;;;;;;;13.13;78.77;99847.19;5070419;28;20100;-73
2022/10/10 03:14:47;;;;;;;9.73;2.08;;;;;;;13.13;79.26;99846.38;5057662;28;20029;-72
2022/10/10 03:17:12;;;;;;;3.92;1.75;;;;;;;13.12;78.79;99855.72;5031516;28;20055;-73
2022/10/10 03:19:38;;;;;;;4.43;1.77;;;;;;;13.13;79.00;99852.69;5055238;28;20044;-74
2022/10/10 03:22:03;;;;;;;2.47;1.20;;;;;;;13.15;78.80;99849.66;5063592;28;20538;-73
2022/10/10 03:24:29;;;;;;;1.90;1.52;;;;;;;13.17;78.78;99853.72;5043668;28;20029;-73
2022/10/10 03:26:54;;;;;;;2.80;1.10;;;;;;;13.16;78.90;99860.34;5055379;28;20063;-73
2022/10/10 03:29:20;;;;;;;4.88;1.45;;;;;;;13.16;78.68;99851.28;5058583;28;20434;-73
2022/10/10 03:31:45;;;;;;;2.55;1.23;;;;;;;13.19;79.24;99856.97;5076880;28;20052;-72
2022/10/10 03:34:11;;;;;;;1.45;0.90;;;;;;;13.20;78.82;99866.03;5043211;28;20028;-73
2022/10/10 03:36:36;;;;;;;1.75;1.15;;;;;;;13.22;78.81;99866.56;5068559;28;20055;-73
2022/10/10 03:39:03;;;;;;;1.40;1.15;;;;;;;13.23;78.93;99868.19;5072922;28;20056;-74
2022/10/10 03:41:28;;;;;;;2.10;0.95;;;;;;;13.18;79.20;99871.00;5048175;28;20044;-73
2022/10/10 03:43:53;;;;;;;1.50;0.65;;;;;;;13.20;78.90;99872.34;5053536;28;20032;-72
2022/10/10 03:46:19;;;;;;;3.90;0.90;;;;;;;13.18;79.00;99871.81;5041345;28;20086;-73
2022/10/10 03:48:46;;;;;;;1.35;0.80;;;;;;;13.22;78.65;99885.78;5063791;28;20084;-73
2022/10/10 03:51:11;;;;;;;1.83;0.95;;;;;;;13.22;79.09;99878.34;5047369;28;20041;-73
2022/10/10 03:53:37;;;;;;;2.30;0.75;;;;;;;13.26;78.93;99878.59;5067955;28;20068;-73
2022/10/10 03:56:03;;;;;;;4.25;1.55;;;;;;;13.31;78.51;99880.44;5062558;28;20040;-74
2022/10/10 03:58:28;;;;;;;3.45;1.08;;;;;;;13.32;78.41;99879.34;5062873;28;20055;-73
2022/10/10 04:00:59;;;;;;;3.65;0.98;;;;;;;13.31;78.91;99881.25;5059965;28;20052;-72
2022/10/10 04:03:25;;;;;;;2.08;1.15;;;;;;;13.31;78.56;99878.50;5068642;28;20028;-72
2022/10/10 04:05:51;;;;;;;5.32;1.27;;;;;;;13.33;79.28;99887.28;5064375;28;20048;-72
2022/10/10 04:08:17;;;;;;;3.88;0.90;;;;;;;13.35;79.13;99885.06;5032439;28;20032;-72
2022/10/10 04:10:43;;;;;;;2.15;1.13;;;;;;;13.36;79.23;99883.13;5072639;28;20132;-73
2022/10/10 04:13:08;;;;;;;3.72;1.20;;;;;;;13.36;79.48;99888.63;5061484;28;20036;-73
2022/10/10 04:15:33;;;;;;;2.47;1.20;;;;;;;13.40;79.79;99890.50;5065822;28;20028;-72
2022/10/10 04:17:59;;;;;;;3.45;1.23;;;;;;;13.43;79.87;99898.13;5081428;28;20032;-73
2022/10/10 04:20:25;;;;;;;9.27;1.50;;;;;;;13.42;80.69;99893.75;5058961;28;20089;-73
2022/10/10 04:22:50;;;;;;;2.15;1.05;;;;;;;13.42;81.75;99899.25;5064009;28;20024;-72
2022/10/10 04:25:16;;;;;;;3.97;1.52;;;;;;;13.48;82.45;99913.72;5048474;28;20088;-73
2022/10/10 04:27:44;;;;;;;5.70;1.40;;;;;;;13.46;83.17;99917.88;5078858;28;20364;-73
2022/10/10 04:30:11;;;;;;;3.75;1.52;;;;;;;13.43;83.94;99916.53;5074910;28;20024;-73
2022/10/10 04:32:36;;;;;;;7.82;1.70;;;;;;;13.40;85.38;99920.69;5051076;28;20131;-72
2022/10/10 04:35:03;;;;;;;4.70;2.00;;;;;;;13.31;85.86;99922.44;5044872;28;20063;-72
2022/10/10 04:37:28;;;;;;;3.33;1.25;;;;;;;13.30;86.41;99923.53;5085625;28;20036;-72
2022/10/10 04:39:54;;;;;;;4.40;1.40;;;;;;;13.30;86.85;99933.72;5062967;28;20024;-71
2022/10/10 04:42:19;;;;;;;3.42;1.60;;;;;;;13.25;86.91;99931.88;5060576;28;20118;-71
2022/10/10 04:44:45;;;;;;;6.10;1.67;;;;;;;13.25;87.32;99937.34;5050172;28;20107;-72
2022/10/10 04:47:12;;;;;;;4.30;1.77;;;;;;;13.23;87.20;99934.09;5069324;28;20094;-74
2022/10/10 04:49:37;;;;;;;6.75;1.40;;;;;;;13.21;88.09;99937.09;5077206;28;20020;-73
2022/10/10 04:52:03;;;;;;;3.90;1.48;;;;;;;13.23;87.59;99942.34;5078929;28;20447;-74
2022/10/10 04:54:29;;;;;;;2.88;1.42;;;;;;;13.23;87.70;99936.84;5053615;28;20032;-72
2022/10/10 04:56:55;;;;;;;3.80;1.42;;;;;;;13.22;87.57;99937.94;5064889;28;20027;-73
2022/10/10 04:59:20;;;;;;;4.53;1.63;;;;;;;13.25;88.30;99942.84;5074981;28;20052;-73
2022/10/10 05:01:45;;;;;;;4.18;1.25;;;;;;;13.24;88.12;99944.78;5054993;28;20037;-73
2022/10/10 05:04:12;;;;;;;3.35;1.20;;;;;;;13.26;88.06;99944.47;5057433;28;20059;-72
2022/10/10 05:06:37;;;;;;;3.22;1.23;;;;;;;13.28;88.20;99953.22;5043709;28;20029;-72
2022/10/10 05:09:03;;;;;;;2.58;1.35;;;;;;;13.29;88.63;99954.88;5071476;28;20070;-73
2022/10/10 05:11:28;;;;;;;5.22;2.10;;;;;;;13.31;88.27;99957.31;5052707;28;20032;-73
2022/10/10 05:13:54;;;;;;;2.30;0.85;;;;;;;13.35;88.26;99964.69;5058822;28;20063;-72
2022/10/10 05:16:19;;;;;;;1.15;0.70;;;;;;;13.38;88.21;99964.09;5061981;28;20444;-73
2022/10/10 05:18:45;;;;;;;1.60;0.70;;;;;;;13.42;87.82;99970.66;5062538;28;20025;-72
2022/10/10 05:21:10;;;;;;;2.80;1.17;;;;;;;13.44;87.98;99979.38;5055282;28;20470;-72
2022/10/10 05:23:37;;;;;;;3.80;0.90;;;;;;;13.47;87.86;99982.69;5062421;28;20601;-72
2022/10/10 05:26:03;;;;;;;0.85;0.80;;;;;;;13.51;87.87;99990.03;5069492;28;20474;-72
2022/10/10 05:28:28;;;;;;;0.77;0.60;;;;;;;13.58;87.65;99995.97;5083063;28;20111;-73
2022/10/10 05:30:54;;;;;;;2.08;0.90;;;;;;;13.61;87.28;99994.56;5060640;28;20063;-70
2022/10/10 05:33:19;;;;;;;3.90;0.88;;;;;;;13.63;87.21;100008.81;5056886;28;20412;-72
2022/10/10 05:35:44;;;;;;;1.60;0.73;;;;;;;13.65;87.75;100003.00;5055984;28;20040;-73
2022/10/10 05:38:10;;;;;;;0.68;0.57;;;;;;;13.70;87.21;100017.50;5044206;28;20025;-72
2022/10/10 05:40:39;;;;;;;1.17;0.63;;;;;;;13.70;87.56;100011.19;5029465;28;20037;-73
2022/10/10 05:43:05;;;;;;;0.75;0.63;;;;;;;13.71;86.90;100010.91;5044490;28;20032;-72
2022/10/10 05:45:30;;;;;;;4.75;0.82;;;;;;;13.71;87.28;100013.66;5046264;28;20037;-72
2022/10/10 05:47:56;;;;;;;2.35;0.80;;;;;;;13.71;87.43;100030.13;5045078;28;20017;-73
2022/10/10 05:50:45;;;;;;;2.50;1.08;;;;;;;13.76;87.58;100034.72;5053389;28;20043;-73
2022/10/10 05:53:11;;;;;;;2.45;1.30;;;;;;;13.74;87.34;100037.78;5071082;28;20033;-73
2022/10/10 05:55:36;;;;;;;1.02;0.90;;;;;;;13.73;87.57;100038.09;5037135;28;20474;-72
2022/10/10 05:58:02;;;;;;;2.28;1.30;;;;;;;13.75;87.61;100050.38;5068706;28;20016;-72
2022/10/10 06:00:28;;;;;;;1.88;0.98;;;;;;;13.74;88.10;100054.28;5058519;28;20040;-72
2022/10/10 06:02:53;;;;;;;2.17;1.10;;;;;;;13.74;87.90;100065.25;5056392;28;20063;-72
2022/10/10 06:05:19;;;;;;;2.88;1.08;;;;;;;13.68;88.79;100077.44;5025183;28;20090;-71
2022/10/10 06:07:44;;;;;;;0.85;0.60;;;;;;;13.52;88.92;100112.53;5036696;28;20051;-72
2022/10/10 06:10:10;;;;;;;5.68;0.70;;;;;;;13.06;88.87;100104.78;5046003;28;20020;-72
2022/10/10 06:12:35;;;;;;;3.15;0.70;;;;;;;12.64;87.99;100118.03;5056492;28;20020;-72
2022/10/10 06:15:01;;;;;;;7.18;0.93;;;;;;;12.20;87.56;100113.44;5031566;28;20032;-72
2022/10/10 06:17:31;;;;;;;3.22;0.80;;;;;;;11.85;87.37;100127.03;5043720;28;20021;-72
2022/10/10 06:19:57;;;;;;;3.85;1.00;;;;;;;11.63;87.73;100132.91;5057131;28;20032;-72
2022/10/10 06:22:23;;;;;;;3.00;0.73;;;;;;;11.53;86.79;100139.25;5056664;28;20028;-75
2022/10/10 06:24:48;;;;;;;5.32;1.00;;;;;;;11.48;86.15;100146.66;5072814;28;20524;-74
2022/10/10 06:27:14;;;;;;;6.15;0.88;;;;;;;11.53;86.42;100146.63;5039031;28;20132;-72
2022/10/10 06:29:39;;;;;;;4.72;1.10;;;;;;;11.65;84.94;100155.38;5074920;28;20028;-72
2022/10/10 06:32:05;;;;;;;5.63;1.00;;;;;;;11.78;84.80;100175.03;5051156;28;20040;-71
2022/10/10 06:34:30;;;;;;;4.07;0.98;;;;;;;11.77;83.64;100181.59;5051799;28;20095;-71
2022/10/10 06:36:56;;;;;;;4.50;1.17;;;;;;;11.83;82.82;100188.72;5053714;28;20160;-71
2022/10/10 06:39:21;;;;;;;5.18;1.00;;;;;;;11.85;82.95;100208.41;5057313;28;20029;-72
2022/10/10 06:41:48;;;;;;;5.82;1.17;;;;;;;11.85;81.81;100216.66;5042613;28;20033;-73
2022/10/10 06:44:16;;;;;;;2.40;1.02;;;;;;;11.82;82.14;100231.72;5071153;28;20035;-71
2022/10/10 06:46:42;;;;;;;2.13;0.65;;;;;;;11.74;82.33;100239.69;5059849;28;20017;-74
2022/10/10 06:49:08;;;;;;;3.95;0.85;;;;;;;11.57;82.02;100249.03;5044084;28;20040;-74
2022/10/10 06:51:33;;;;;;;2.22;0.80;;;;;;;11.43;82.52;100250.72;5082471;28;20032;-74
2022/10/10 06:53:59;;;;;;;5.07;0.77;;;;;;;11.29;82.72;100256.75;5043763;28;20128;-74
2022/10/10 06:56:25;;;;;;;6.90;0.77;;;;;;;11.18;82.86;100274.25;5045256;28;20025;-74
2022/10/10 06:58:50;;;;;;;3.70;0.75;;;;;;;11.03;82.60;100275.09;5058299;28;20024;-75
2022/10/10 07:01:21;;;;;;;8.18;1.08;;;;;;;10.97;83.31;100285.19;5047784;28;20129;-74
2022/10/10 07:03:47;;;;;;;6.68;0.90;;;;;;;10.92;82.85;100285.22;5056692;28;20029;-74
2022/10/10 07:06:13;;;;;;;6.35;1.15;;;;;;;10.91;82.57;100290.97;5064039;28;20599;-74
2022/10/10 07:08:39;;;;;;;8.27;1.50;;;;;;;10.85;82.45;100297.50;5089937;28;20027;-74
2022/10/10 07:11:06;;;;;;;6.18;1.42;;;;;;;10.81;82.30;100302.69;5048309;28;20025;-73
2022/10/10 07:13:39;;;;;;;12.82;1.08;;;;;;;10.84;82.37;100318.56;5062191;28;20013;-74
2022/10/10 07:16:09;;;;;;;4.30;0.97;;;;;;;10.86;82.26;100318.28;5074421;28;20043;-74
2022/10/10 07:18:36;;;;;;;5.32;0.80;;;;;;;10.95;81.86;100328.44;5059305;28;20279;-74
2022/10/10 07:21:03;;;;;;;5.60;1.35;;;;;;;11.03;81.37;100329.00;5073737;28;20036;-75
2022/10/10 07:23:30;;;;;;;2.75;0.80;;;;;;;11.13;81.77;100334.47;5081289;28;20059;-74
2022/10/10 07:26:09;;;;;;;4.55;1.00;;;;;;;11.09;81.13;100325.97;5079909;28;20029;-73
2022/10/10 07:28:35;;;;;;;3.03;0.95;;;;;;;11.24;81.04;100346.25;5051834;28;20055;-73
2022/10/10 07:31:05;;;;;;;2.88;0.60;;;;;;;11.24;80.90;100344.31;5079293;28;20029;-73
2022/10/10 07:33:38;;;;;;;4.68;1.15;;;;;;;11.38;80.25;100357.50;5076283;28;20028;-73
2022/10/10 07:36:04;;;;;;;4.75;0.93;;;;;;;11.49;80.02;100353.66;5072252;28;20024;-74
2022/10/10 07:38:29;;;;;;;1.75;0.50;;;;;;;11.59;80.08;100353.66;5042293;28;20037;-72
2022/10/10 07:41:09;;;;;;;2.40;0.70;;;;;;;11.79;79.57;100371.19;5055501;28;20039;-74
2022/10/10 07:43:37;;;;;;;4.97;0.82;;;;;;;11.84;78.81;100368.41;5054124;28;20052;-74
2022/10/10 07:46:13;;;;;;;6.72;1.00;;;;;;;11.94;78.31;100375.84;5038603;28;20062;-72
2022/10/10 07:48:42;;;;;;;4.70;0.65;;;;;;;12.04;78.17;100387.59;5073550;28;20043;-74
2022/10/10 07:51:08;;;;;;;7.90;1.60;;;;;;;12.14;77.50;100375.00;5049103;28;20025;-74
2022/10/10 07:53:46;;;;;;;4.07;0.93;;;;;;;12.42;76.27;100387.25;5032745;28;20067;-74
2022/10/10 07:56:11;;;;;;;5.13;0.90;;;;;;;12.82;74.97;100395.59;5050384;28;20028;-73
2022/10/10 07:58:37;;;;;;;5.32;1.20;;;;;;;12.97;74.52;100412.00;5068526;28;20033;-73
2022/10/10 08:01:05;;;;;;;4.65;1.00;;;;;;;13.07;73.33;100419.34;5069400;28;20060;-73
2022/10/10 08:03:31;;;;;;;3.95;0.77;;;;;;;13.17;73.64;100430.28;5057973;28;20020;-72
2022/10/10 08:05:57;;;;;;;5.13;0.80;;;;;;;13.30;72.74;100415.06;5074476;28;20040;-73
2022/10/10 08:08:22;;;;;;;8.73;1.60;;;;;;;13.38;72.29;100431.00;5052671;28;20032;-72
2022/10/10 08:10:48;;;;;;;2.58;1.08;;;;;;;13.45;71.83;100433.44;5073349;28;20025;-73
2022/10/10 08:13:13;;;;;;;4.68;1.05;;;;;;;13.46;71.21;100421.31;5053796;28;20025;-72
2022/10/10 08:15:40;;;;;;;4.55;1.10;;;;;;;13.88;70.79;100438.31;5077627;28;20035;-72
2022/10/10 08:18:06;;;;;;;4.10;1.30;;;;;;;14.25;70.23;100447.88;5042543;28;20032;-72
2022/10/10 08:20:34;;;;;;;4.18;1.05;;;;;;;14.89;68.56;100461.53;5050185;28;20284;-73
2022/10/10 08:22:59;;;;;;;6.70;1.20;;;;;;;15.27;66.81;100456.09;5070880;28;20035;-75
2022/10/10 08:25:27;;;;;;;6.13;1.17;;;;;;;15.19;65.95;100466.66;5028025;28;20032;-74
2022/10/10 08:27:52;;;;;;;3.20;0.82;;;;;;;15.07;66.97;100473.69;5030512;28;20062;-73
2022/10/10 08:30:18;;;;;;;3.70;0.82;;;;;;;18.12;60.42;100490.69;5049891;28;20040;-73
2022/10/10 08:32:43;;;;;;;6.93;1.08;;;;;;;21.87;49.46;100496.25;5043070;28;20040;-73
2022/10/10 08:35:12;;;;;;;5.30;0.90;;;;;;;24.39;42.94;100501.53;5067354;28;20078;-73
2022/10/10 08:37:37;;;;;;;7.78;1.02;;;;;;;25.86;39.33;100511.03;5042437;28;20070;-72
2022/10/10 08:40:05;;;;;;;5.65;1.08;;;;;;;26.70;36.04;100508.69;5042087;28;20104;-73
2022/10/10 08:42:37;;;;;;;3.70;1.00;;;;;;;27.43;34.54;100514.25;5068040;28;20036;-72
2022/10/10 08:45:17;;;;;;;6.65;1.20;;;;;;;28.32;32.93;100534.25;5070468;28;20027;-73
2022/10/10 08:48:08;;;;;;;6.43;1.05;;;;;;;29.30;32.02;100530.34;5077293;28;20036;-72
2022/10/10 08:50:39;;;;;;;5.25;1.10;;;;;;;29.66;30.47;100541.84;5069134;28;20067;-72
2022/10/10 08:53:10;;;;;;;3.63;1.00;;;;;;;30.51;29.80;100550.25;5049982;28;20120;-73
2022/10/10 08:55:39;;;;;;;4.05;0.90;;;;;;;30.89;28.55;100553.53;5058344;28;20028;-73
2022/10/10 08:58:15;;;;;;;6.53;1.20;;;;;;;31.30;27.81;100550.28;5049718;28;20029;-73
2022/10/10 09:00:49;;;;;;;2.95;1.08;;;;;;;31.56;26.80;100553.88;5070382;28;20112;-73
2022/10/10 09:03:26;;;;;;;5.28;1.35;;;;;;;31.88;26.65;100564.28;5060112;28;20078;-73
2022/10/10 09:05:54;;;;;;;6.32;1.45;;;;;;;32.31;25.08;100562.09;5058176;28;20115;-72
2022/10/10 09:08:46;;;;;;;5.95;1.00;;;;;;;32.77;24.94;100563.06;5065449;28;20013;-74
2022/10/10 09:11:38;;;;;;;3.42;0.85;;;;;;;33.57;24.46;100566.00;5055388;28;20032;-73
2022/10/10 09:14:28;;;;;;;8.18;1.55;;;;;;;34.44;22.92;100579.97;5048738;28;20037;-74
2022/10/10 09:17:12;;;;;;;6.53;1.33;;;;;;;34.10;22.19;100575.94;5069187;28;20025;-73
2022/10/10 09:19:49;;;;;;;7.35;1.40;;;;;;;33.81;21.95;100578.31;5057766;28;20031;-74
2022/10/10 09:22:24;;;;;;;5.18;1.13;;;;;;;33.73;21.22;100583.25;5079328;28;20520;-74
2022/10/10 09:25:03;;;;;;;2.47;1.00;;;;;;;34.20;21.64;100584.72;5059107;28;20021;-75
2022/10/10 09:27:34;;;;;;;5.85;1.15;;;;;;;35.00;20.71;100582.38;5048858;28;20043;-74
2022/10/10 09:30:32;;;;;;;6.70;1.30;;;;;;;35.47;20.43;100604.31;5076697;28;20085;-73
2022/10/10 09:33:08;;;;;;;7.05;1.48;;;;;;;36.10;19.26;100605.59;5041820;28;20032;-74
2022/10/10 09:35:37;;;;;;;6.18;1.23;;;;;;;36.42;19.18;100607.75;5070017;28;20044;-72
2022/10/10 09:38:09;;;;;;;4.13;1.30;;;;;;;37.18;18.91;100617.38;5065343;28;20040;-73
2022/10/10 09:40:45;;;;;;;12.65;1.30;;;;;;;37.46;18.10;100617.91;5065848;28;20031;-73
2022/10/10 09:43:16;;;;;;;10.20;1.27;;;;;;;37.53;17.40;100623.44;5052827;28;20029;-73
2022/10/10 09:45:49;;;;;;;6.97;1.55;;;;;;;37.47;17.55;100625.19;5067458;28;20090;-72
2022/10/10 09:48:15;;;;;;;4.18;1.30;;;;;;;37.79;16.80;100632.13;5067344;28;20037;-72
2022/10/10 09:50:41;;;;;;;4.10;1.45;;;;;;;38.03;17.11;100636.31;5053436;28;20052;-72
2022/10/10 09:53:08;;;;;;;6.20;1.52;;;;;;;38.78;16.09;100637.41;5060247;28;20025;-73
2022/10/10 09:55:37;;;;;;;5.32;1.00;;;;;;;38.93;15.67;100635.66;5057612;28;20120;-73
2022/10/10 09:58:19;;;;;;;4.88;1.48;;;;;;;39.29;16.11;100631.63;5066734;28;20025;-71
2022/10/10 10:00:44;;;;;;;4.15;1.00;;;;;;;40.09;15.47;100644.78;5066217;28;20059;-73
2022/10/10 10:03:14;;;;;;;5.93;1.10;;;;;;;40.12;14.80;100646.69;5038670;28;20016;-73
2022/10/10 10:05:42;;;;;;;5.07;1.40;;;;;;;40.20;14.48;100647.22;5083495;28;20038;-73
2022/10/10 10:08:30;;;;;;;7.70;1.58;;;;;;;40.44;14.49;100650.38;5067341;28;20029;-73
2022/10/10 10:10:57;;;;;;;3.80;1.00;;;;;;;41.41;14.56;100651.44;5067871;28;20029;-73
2022/10/10 10:13:34;;;;;;;3.90;1.23;;;;;;;42.55;13.38;100643.84;5074486;28;20032;-74
2022/10/10 10:16:12;;;;;;;4.13;0.90;;;;;;;42.70;13.50;100655.47;5077434;28;20051;-73
2022/10/10 10:18:46;;;;;;;3.22;0.77;;;;;;;42.61;13.17;100669.88;5080520;28;20029;-73
2022/10/10 10:21:19;;;;;;;5.15;1.10;;;;;;;42.77;13.29;100663.75;5079779;28;20036;-73
2022/10/10 10:24:03;;;;;;;5.68;1.45;;;;;;;42.64;12.60;100680.41;5056265;28;20178;-72
2022/10/10 10:26:43;;;;;;;6.10;1.63;;;;;;;42.30;12.66;100679.53;5081772;28;20044;-73
2022/10/10 10:29:27;;;;;;;7.20;1.48;;;;;;;41.82;12.92;100680.84;5072993;28;20128;-73
2022/10/10 10:32:02;;;;;;;5.05;1.65;;;;;;;42.35;12.92;100687.47;5084287;28;20040;-74
2022/10/10 10:34:47;;;;;;;6.72;1.17;;;;;;;43.15;12.42;100684.50;5063354;28;20040;-74
2022/10/10 10:37:12;;;;;;;3.17;1.00;;;;;;;43.94;12.30;100691.97;5077056;28;20055;-74
2022/10/10 10:39:41;;;;;;;6.00;1.30;;;;;;;43.77;12.82;100688.75;5091167;28;20020;-74
2022/10/10 10:42:36;;;;;;;6.18;1.23;;;;;;;42.05;13.68;100690.06;5071191;28;20036;-74
2022/10/10 10:45:04;;;;;;;6.28;1.52;;;;;;;40.82;14.50;100689.44;5071819;28;20398;-73
2022/10/10 10:48:00;;;;;;;2.97;0.88;;;;;;;41.21;14.24;100688.31;5074061;28;20067;-73
2022/10/10 10:50:33;;;;;;;4.57;1.33;;;;;;;41.63;13.73;100702.16;5084912;28;20032;-74
2022/10/10 10:53:06;;;;;;;4.90;1.23;;;;;;;42.29;12.92;100701.72;5077587;28;20501;-74
2022/10/10 10:55:50;;;;;;;6.32;1.42;;;;;;;42.10;13.63;100706.66;5083687;28;20065;-73
2022/10/10 10:58:34;;;;;;;7.82;1.30;;;;;;;43.09;12.77;100716.03;5077471;28;20031;-73
2022/10/10 11:01:03;;;;;;;5.00;1.40;;;;;;;42.36;12.59;100720.69;5070163;28;20037;-74
2022/10/10 11:03:50;;;;;;;3.70;1.30;;;;;;;41.90;12.97;100718.63;5058180;28;20032;-73
2022/10/10 11:06:18;;;;;;;3.72;1.10;;;;;;;41.88;12.92;100711.75;5077805;28;20024;-72
2022/10/10 11:09:07;;;;;;;3.70;0.93;;;;;;;41.67;13.20;100720.81;5058086;28;20029;-74
2022/10/10 11:11:50;;;;;;;3.05;0.98;;;;;;;43.03;12.98;100717.97;5069548;28;20064;-72
2022/10/10 11:14:57;;;;;;;2.55;1.00;;;;;;;43.49;12.14;100731.31;5083040;28;20063;-72
2022/10/10 11:17:26;;;;;;;3.38;0.90;;;;;;;44.09;11.69;100738.91;5073506;28;20067;-73
2022/10/10 11:19:58;;;;;;;9.07;1.48;;;;;;;44.30;10.92;100744.03;5069860;28;20024;-72
2022/10/10 11:22:40;;;;;;;3.63;1.15;;;;;;;44.30;11.26;100741.16;5063053;28;20058;-73
2022/10/10 11:25:22;;;;;;;2.95;0.93;;;;;;;44.13;10.76;100741.56;5052766;28;20032;-72
2022/10/10 11:28:12;;;;;;;4.25;1.10;;;;;;;43.21;11.22;100735.16;5066083;28;20016;-74
2022/10/10 11:30:43;;;;;;;3.60;0.90;;;;;;;43.53;10.99;100737.69;5063090;28;20041;-73
2022/10/10 11:33:09;;;;;;;2.90;1.15;;;;;;;43.86;10.63;100743.41;5069288;28;20027;-73
2022/10/10 11:36:01;;;;;;;4.05;1.27;;;;;;;43.93;10.08;100745.91;5078266;28;20115;-73
2022/10/10 11:38:38;;;;;;;9.48;1.40;;;;;;;43.83;10.34;100732.88;5066252;28;20431;-74
2022/10/10 11:41:21;;;;;;;4.45;1.30;;;;;;;43.78;10.25;100742.16;5070627;28;20762;-74
2022/10/10 11:43:53;;;;;;;4.68;1.20;;;;;;;43.98;10.20;100755.16;5062076;28;20039;-73